Time;durP1;ratioP1;P1;durP2;ratioP2;P2;SDS_P1;SDS_P2;PMS_P1;PMS_P2;Temp;Humidity;BMP_temperature;BMP_pressure;BME280_temperature;BME280_humidity;BME280_pressure;Samples;Min_cycle;Max_cycle;Signal;HPM_P1;HPM_P2
2022/01/17 00:00:37;;;;;;;10.53;9.37;;;;;;;;;;5027365;28;20203;-63
2022/01/17 00:03:09;;;;;;;11.70;10.10;;;;;;;;;;5025338;28;20219;-63
2022/01/17 00:05:39;;;;;;;11.70;9.57;;;;;;;;;;5023955;28;20589;-63
2022/01/17 00:08:10;;;;;;;11.03;9.93;;;;;;;;;;5030645;28;20376;-64
2022/01/17 00:10:40;;;;;;;10.70;9.53;;;;;;;;;;5025835;28;20203;-63
2022/01/17 00:13:13;;;;;;;10.57;9.43;;;;;;;;;;5027983;28;20276;-63
2022/01/17 00:15:50;;;;;;;10.97;9.87;;;;;;;;;;5022575;28;20214;-63
2022/01/17 00:19:34;;;;;;;10.93;9.83;;;;;;;;;;5026843;28;20286;-64
2022/01/17 00:21:24;;;;;;;12.37;10.93;;;;;;;;;;5016844;28;20846;-63
2022/01/17 00:23:53;;;;;;;11.63;10.43;;;;;;;;;;5033242;28;20234;-63
2022/01/17 00:26:23;;;;;;;12.30;10.90;;;;;;;;;;5024357;28;20230;-63
2022/01/17 00:28:55;;;;;;;12.43;11.00;;;;;;;;;;5027404;28;20203;-65
2022/01/17 00:31:28;;;;;;;11.27;10.03;;;;;;;;;;5014130;28;20199;-63
2022/01/17 00:33:58;;;;;;;11.27;10.07;;;;;;;;;;5028658;28;20205;-63
2022/01/17 00:36:26;;;;;;;12.43;11.13;;;;;;;;;;5031253;28;20195;-61
2022/01/17 00:38:58;;;;;;;11.23;10.03;;;;;;;;;;5023811;28;20233;-61
2022/01/17 00:41:30;;;;;;;12.00;10.70;;;;;;;;;;5025964;28;20537;-63
2022/01/17 00:44:00;;;;;;;11.37;10.23;;;;;;;;;;5027265;28;20223;-61
2022/01/17 00:46:48;;;;;;;12.10;10.80;;;;;;;;;;5025657;28;20226;-63
2022/01/17 00:49:19;;;;;;;12.63;11.10;;;;;;;;;;5024565;28;20282;-61
2022/01/17 00:51:49;;;;;;;11.67;10.47;;;;;;;;;;5034126;28;20231;-63
2022/01/17 00:54:21;;;;;;;13.17;11.33;;;;;;;;;;5014627;28;20695;-63
2022/01/17 00:56:54;;;;;;;12.07;10.87;;;;;;;;;;5027519;28;20649;-63
2022/01/17 00:59:24;;;;;;;12.40;11.13;;;;;;;;;;5026462;28;20219;-63
2022/01/17 01:01:57;;;;;;;14.57;11.30;;;;;;;;;;5025479;28;20215;-62
2022/01/17 01:04:28;;;;;;;14.60;11.37;;;;;;;;;;5026151;28;20230;-63
2022/01/17 01:07:00;;;;;;;13.23;11.83;;;;;;;;;;5026238;28;20249;-63
2022/01/17 01:09:36;;;;;;;13.00;11.70;;;;;;;;;;5023779;28;20195;-63
2022/01/17 01:12:08;;;;;;;12.97;10.87;;;;;;;;;;5026329;28;20198;-63
2022/01/17 01:14:41;;;;;;;15.73;11.67;;;;;;;;;;5029141;28;20355;-63
2022/01/17 01:17:30;;;;;;;12.87;11.40;;;;;;;;;;5031855;28;20222;-63
2022/01/17 01:28:43;;;;;;;12.67;11.37;;;;;;;;;;5015737;28;20203;-63
2022/01/17 01:31:17;;;;;;;13.07;11.40;;;;;;;;;;5026050;28;20210;-63
2022/01/17 01:33:55;;;;;;;13.07;11.77;;;;;;;;;;5028937;28;20694;-63
2022/01/17 01:36:28;;;;;;;12.47;10.97;;;;;;;;;;5023524;28;20208;-63
2022/01/17 01:39:06;;;;;;;12.67;11.03;;;;;;;;;;5030299;28;20214;-63
2022/01/17 01:41:49;;;;;;;13.17;11.83;;;;;;;;;;5027973;28;20202;-63
2022/01/17 01:44:20;;;;;;;14.37;10.90;;;;;;;;;;5031707;28;20682;-63
2022/01/17 01:46:54;;;;;;;12.10;10.80;;;;;;;;;;5028963;28;20214;-64
2022/01/17 01:49:25;;;;;;;12.37;10.57;;;;;;;;;;5011022;28;20226;-63
2022/01/17 01:51:54;;;;;;;13.83;11.23;;;;;;;;;;5045544;28;20232;-63
2022/01/17 01:54:25;;;;;;;12.77;11.13;;;;;;;;;;5022426;28;20666;-63
2022/01/17 01:56:59;;;;;;;11.83;10.23;;;;;;;;;;5031629;28;20206;-63
2022/01/17 01:59:37;;;;;;;11.50;10.37;;;;;;;;;;5022899;28;20198;-63
2022/01/17 02:02:11;;;;;;;12.53;11.00;;;;;;;;;;5025393;28;20199;-63
2022/01/17 02:04:39;;;;;;;11.30;10.20;;;;;;;;;;5040882;28;20218;-63
2022/01/17 02:07:07;;;;;;;13.67;12.27;;;;;;;;;;5029752;28;20184;-63
2022/01/17 02:09:40;;;;;;;12.03;10.47;;;;;;;;;;5025821;28;21101;-63
2022/01/17 02:12:20;;;;;;;12.33;11.03;;;;;;;;;;5008188;28;20218;-63
2022/01/17 02:14:55;;;;;;;12.13;10.90;;;;;;;;;;5035360;28;20247;-63
2022/01/17 02:17:27;;;;;;;13.37;12.07;;;;;;;;;;5029738;28;20209;-63
2022/01/17 02:20:05;;;;;;;12.03;10.73;;;;;;;;;;5035774;28;20211;-63
2022/01/17 02:22:33;;;;;;;11.50;10.30;;;;;;;;;;5002791;28;20281;-63
2022/01/17 02:25:03;;;;;;;11.97;10.53;;;;;;;;;;5010356;28;20218;-63
2022/01/17 02:27:33;;;;;;;12.27;10.97;;;;;;;;;;5002038;28;20224;-63
2022/01/17 02:30:06;;;;;;;11.50;10.30;;;;;;;;;;5005144;28;20223;-64
2022/01/17 02:32:38;;;;;;;13.23;10.60;;;;;;;;;;5008481;28;20210;-63
2022/01/17 02:35:17;;;;;;;12.23;10.90;;;;;;;;;;5007579;28;20208;-63
2022/01/17 02:37:52;;;;;;;12.07;10.77;;;;;;;;;;5005454;28;20262;-63
2022/01/17 02:40:26;;;;;;;10.90;9.80;;;;;;;;;;5006251;28;20206;-63
2022/01/17 02:43:08;;;;;;;12.73;10.77;;;;;;;;;;4993357;28;20232;-63
2022/01/17 02:48:28;;;;;;;11.83;10.63;;;;;;;;;;5008278;28;20199;-63
2022/01/17 02:51:01;;;;;;;11.47;10.33;;;;;;;;;;4987802;28;20372;-63
2022/01/17 02:53:31;;;;;;;11.13;9.83;;;;;;;;;;5009938;28;20214;-63
2022/01/17 02:56:09;;;;;;;11.67;10.57;;;;;;;;;;5007534;28;20204;-63
2022/01/17 02:58:40;;;;;;;11.97;9.70;;;;;;;;;;5007670;28;20214;-63
2022/01/17 03:01:15;;;;;;;11.07;9.97;;;;;;;;;;4984047;28;20637;-63
2022/01/17 03:03:47;;;;;;;11.07;9.87;;;;;;;;;;5004047;28;20231;-63
2022/01/17 03:06:18;;;;;;;10.97;9.83;;;;;;;;;;4997597;28;20192;-63
2022/01/17 03:08:50;;;;;;;11.13;9.83;;;;;;;;;;4990052;28;20205;-63
2022/01/17 03:11:29;;;;;;;11.83;9.73;;;;;;;;;;5005542;28;20211;-63
2022/01/17 03:13:58;;;;;;;10.60;9.50;;;;;;;;;;5000859;28;20230;-63
2022/01/17 03:16:34;;;;;;;11.17;9.67;;;;;;;;;;4998571;28;20225;-63
2022/01/17 03:19:06;;;;;;;10.80;9.73;;;;;;;;;;5006128;28;20242;-64
2022/01/17 03:21:37;;;;;;;10.40;9.30;;;;;;;;;;5015029;28;20235;-63
2022/01/17 03:24:09;;;;;;;10.47;9.37;;;;;;;;;;5031159;28;20222;-64
2022/01/17 03:26:39;;;;;;;10.63;9.23;;;;;;;;;;5037232;28;20668;-64
2022/01/17 03:29:11;;;;;;;9.90;8.90;;;;;;;;;;5012802;28;20201;-63
2022/01/17 03:31:44;;;;;;;11.23;9.77;;;;;;;;;;5027548;28;20223;-63
2022/01/17 03:34:16;;;;;;;9.70;8.80;;;;;;;;;;5033426;28;20597;-63
2022/01/17 03:36:48;;;;;;;11.00;9.27;;;;;;;;;;5031628;28;20233;-64
2022/01/17 03:39:22;;;;;;;10.50;9.23;;;;;;;;;;5024254;28;20215;-63
2022/01/17 03:41:54;;;;;;;10.10;9.10;;;;;;;;;;5032807;28;20206;-63
2022/01/17 03:44:29;;;;;;;10.20;9.20;;;;;;;;;;5027771;28;20228;-63
2022/01/17 03:47:01;;;;;;;10.10;9.10;;;;;;;;;;5028338;28;20187;-63
2022/01/17 03:49:32;;;;;;;10.27;9.17;;;;;;;;;;5030712;28;20201;-63
2022/01/17 03:52:04;;;;;;;10.37;9.30;;;;;;;;;;5035698;28;20210;-63
2022/01/17 03:54:37;;;;;;;10.10;8.53;;;;;;;;;;5028951;28;20227;-63
2022/01/17 03:57:09;;;;;;;11.07;9.43;;;;;;;;;;5032816;28;20206;-63
2022/01/17 03:59:40;;;;;;;10.60;9.57;;;;;;;;;;5030742;28;20675;-68
2022/01/17 04:02:11;;;;;;;9.97;8.70;;;;;;;;;;5028603;28;20213;-63
2022/01/17 04:04:39;;;;;;;10.67;9.53;;;;;;;;;;5027082;28;20556;-63
2022/01/17 04:07:09;;;;;;;11.37;9.70;;;;;;;;;;5025754;28;20907;-63
2022/01/17 04:09:41;;;;;;;9.70;8.70;;;;;;;;;;5025729;28;20512;-63
2022/01/17 04:12:14;;;;;;;10.17;9.17;;;;;;;;;;5026466;28;20199;-63
2022/01/17 04:14:46;;;;;;;10.20;8.77;;;;;;;;;;5029036;28;20213;-63
2022/01/17 04:17:18;;;;;;;10.87;9.23;;;;;;;;;;5026807;28;20214;-63
2022/01/17 04:19:52;;;;;;;10.53;9.50;;;;;;;;;;5026228;28;20191;-63
2022/01/17 04:22:40;;;;;;;10.93;9.37;;;;;;;;;;5026705;28;20335;-63
2022/01/17 04:25:29;;;;;;;9.80;8.80;;;;;;;;;;5009788;28;20215;-63
2022/01/17 04:28:05;;;;;;;10.20;9.10;;;;;;;;;;5025633;28;20193;-63
2022/01/17 04:30:38;;;;;;;9.63;8.60;;;;;;;;;;5029506;28;20644;-64
2022/01/17 04:33:11;;;;;;;10.27;9.20;;;;;;;;;;5026090;28;20187;-63
2022/01/17 04:35:42;;;;;;;10.00;9.00;;;;;;;;;;5023279;28;20222;-63
2022/01/17 04:38:18;;;;;;;10.07;8.87;;;;;;;;;;5024716;28;20695;-63
2022/01/17 04:40:48;;;;;;;10.23;9.20;;;;;;;;;;5026373;28;20836;-63
2022/01/17 04:43:32;;;;;;;9.57;8.57;;;;;;;;;;5031638;28;20214;-63
2022/01/17 04:46:06;;;;;;;9.67;8.67;;;;;;;;;;5026707;28;20885;-63
2022/01/17 04:48:38;;;;;;;9.90;8.20;;;;;;;;;;5037192;28;20209;-63
2022/01/17 04:51:10;;;;;;;9.40;8.40;;;;;;;;;;5024745;28;20207;-64
2022/01/17 04:53:54;;;;;;;9.37;8.37;;;;;;;;;;5037693;28;20199;-64
2022/01/17 04:56:25;;;;;;;9.97;8.63;;;;;;;;;;5024837;28;20297;-63
2022/01/17 04:58:57;;;;;;;9.10;8.20;;;;;;;;;;5031531;28;20648;-63
2022/01/17 05:01:25;;;;;;;12.27;8.70;;;;;;;;;;5021973;28;20222;-64
2022/01/17 05:03:57;;;;;;;8.97;8.07;;;;;;;;;;5026386;28;20273;-63
2022/01/17 05:06:29;;;;;;;9.17;7.37;;;;;;;;;;5025409;28;20199;-63
2022/01/17 05:09:04;;;;;;;9.03;7.87;;;;;;;;;;5037210;28;20202;-63
2022/01/17 05:11:39;;;;;;;9.80;8.37;;;;;;;;;;5022365;28;20193;-63
2022/01/17 05:14:10;;;;;;;9.73;8.33;;;;;;;;;;5005549;28;20223;-63
2022/01/17 05:16:46;;;;;;;9.83;8.83;;;;;;;;;;5025611;28;20207;-63
2022/01/17 05:22:13;;;;;;;9.00;8.10;;;;;;;;;;5025970;28;20258;-63
2022/01/17 05:24:54;;;;;;;9.00;7.83;;;;;;;;;;5026115;28;20234;-63
2022/01/17 05:27:24;;;;;;;9.60;8.13;;;;;;;;;;5024852;28;20378;-63
2022/01/17 05:29:55;;;;;;;8.37;7.47;;;;;;;;;;5024400;28;20199;-63
2022/01/17 05:32:25;;;;;;;9.20;8.30;;;;;;;;;;5032147;28;20215;-63
2022/01/17 05:34:52;;;;;;;10.33;7.90;;;;;;;;;;5026572;28;20342;-63
2022/01/17 05:37:22;;;;;;;8.37;7.33;;;;;;;;;;5030376;28;20222;-63
2022/01/17 05:39:53;;;;;;;8.93;8.03;;;;;;;;;;5025018;28;20616;-63
2022/01/17 05:42:24;;;;;;;9.80;7.80;;;;;;;;;;5027545;28;20221;-63
2022/01/17 05:44:54;;;;;;;7.70;7.00;;;;;;;;;;5011764;28;20203;-63
2022/01/17 05:47:23;;;;;;;8.40;7.60;;;;;;;;;;5024702;28;20211;-63
2022/01/17 05:49:53;;;;;;;8.37;7.50;;;;;;;;;;5008237;28;20215;-63
2022/01/17 05:52:25;;;;;;;8.03;7.23;;;;;;;;;;5032514;28;20229;-63
2022/01/17 05:54:56;;;;;;;7.70;6.90;;;;;;;;;;5027814;28;20648;-63
2022/01/17 05:57:28;;;;;;;8.00;6.93;;;;;;;;;;5022251;28;20217;-63
2022/01/17 06:00:00;;;;;;;8.73;7.60;;;;;;;;;;5007909;28;20202;-63
2022/01/17 06:02:30;;;;;;;8.20;7.40;;;;;;;;;;5005786;28;20211;-63
2022/01/17 06:04:59;;;;;;;8.50;7.30;;;;;;;;;;5007593;28;20589;-62
2022/01/17 06:07:32;;;;;;;9.60;7.50;;;;;;;;;;5024435;28;20199;-63
2022/01/17 06:10:01;;;;;;;7.50;6.60;;;;;;;;;;5008976;28;20210;-63
2022/01/17 06:12:34;;;;;;;8.23;7.37;;;;;;;;;;5007343;28;20333;-63
2022/01/17 06:15:04;;;;;;;7.47;6.67;;;;;;;;;;5022691;28;20211;-63
2022/01/17 06:17:36;;;;;;;8.60;7.73;;;;;;;;;;5022372;28;20315;-63
2022/01/17 06:20:07;;;;;;;7.90;6.93;;;;;;;;;;5024436;28;20199;-63
2022/01/17 06:22:38;;;;;;;7.60;6.80;;;;;;;;;;5023156;28;20231;-63
2022/01/17 06:25:11;;;;;;;7.80;6.80;;;;;;;;;;5025292;28;20225;-63
2022/01/17 06:27:40;;;;;;;7.33;6.50;;;;;;;;;;5025461;28;20214;-63
2022/01/17 06:30:15;;;;;;;7.93;7.10;;;;;;;;;;5027224;28;20206;-63
2022/01/17 06:32:46;;;;;;;7.90;7.10;;;;;;;;;;5029775;28;20215;-63
2022/01/17 06:35:16;;;;;;;6.70;5.87;;;;;;;;;;5024350;28;20206;-63
2022/01/17 06:37:48;;;;;;;7.10;6.27;;;;;;;;;;5027179;28;20215;-63
2022/01/17 06:40:21;;;;;;;7.73;6.47;;;;;;;;;;5027653;28;20206;-63
2022/01/17 06:42:52;;;;;;;7.93;5.93;;;;;;;;;;5029739;28;20205;-63
2022/01/17 06:45:21;;;;;;;7.33;6.57;;;;;;;;;;5026623;28;20239;-63
2022/01/17 06:47:51;;;;;;;7.73;6.93;;;;;;;;;;5031622;28;20210;-63
2022/01/17 06:50:23;;;;;;;6.43;5.83;;;;;;;;;;5025678;28;20213;-63
2022/01/17 06:52:57;;;;;;;7.27;6.07;;;;;;;;;;5028169;28;20207;-64
2022/01/17 06:55:49;;;;;;;8.87;6.20;;;;;;;;;;5026773;28;20598;-63
2022/01/17 06:58:19;;;;;;;7.70;6.77;;;;;;;;;;5028010;28;20234;-63
2022/01/17 07:00:51;;;;;;;8.20;6.30;;;;;;;;;;5027349;28;20199;-63
2022/01/17 07:03:21;;;;;;;9.00;6.50;;;;;;;;;;5029601;28;20237;-63
2022/01/17 07:05:51;;;;;;;6.63;5.63;;;;;;;;;;5025098;28;20257;-63
2022/01/17 07:08:21;;;;;;;6.10;5.50;;;;;;;;;;5038065;28;20766;-63
2022/01/17 07:11:05;;;;;;;6.93;5.73;;;;;;;;;;5026656;28;20195;-63
2022/01/17 07:13:35;;;;;;;7.90;6.00;;;;;;;;;;5012461;28;20199;-63
2022/01/17 07:16:08;;;;;;;8.60;5.63;;;;;;;;;;5026665;28;20236;-63
2022/01/17 07:18:40;;;;;;;6.83;5.83;;;;;;;;;;5029279;28;20873;-64
2022/01/17 07:21:13;;;;;;;6.73;5.57;;;;;;;;;;5032006;28;20191;-65
2022/01/17 07:23:42;;;;;;;7.17;5.80;;;;;;;;;;5027249;28;20818;-66
2022/01/17 07:26:12;;;;;;;7.57;5.57;;;;;;;;;;5029213;28;20250;-66
2022/01/17 07:28:44;;;;;;;10.93;6.13;;;;;;;;;;5023247;28;20215;-67
2022/01/17 07:31:14;;;;;;;6.33;5.23;;;;;;;;;;5029464;28;20199;-64
2022/01/17 07:33:46;;;;;;;6.50;5.80;;;;;;;;;;5025621;28;20203;-64
2022/01/17 07:36:19;;;;;;;9.83;6.17;;;;;;;;;;5020639;28;20203;-67
2022/01/17 07:38:51;;;;;;;7.10;6.03;;;;;;;;;;5024667;28;20308;-66
2022/01/17 07:41:22;;;;;;;8.27;6.37;;;;;;;;;;5026465;28;20195;-67
2022/01/17 07:44:23;;;;;;;6.53;5.50;;;;;;;;;;5038552;28;20207;-67
2022/01/17 07:46:56;;;;;;;6.17;5.57;;;;;;;;;;5025689;28;20206;-66
2022/01/17 07:49:26;;;;;;;6.50;5.90;;;;;;;;;;5021181;28;20194;-65
2022/01/17 07:52:05;;;;;;;5.80;5.17;;;;;;;;;;5009908;28;20365;-66
2022/01/17 07:54:43;;;;;;;8.40;6.40;;;;;;;;;;5008540;28;20213;-66
2022/01/17 07:57:13;;;;;;;7.10;5.60;;;;;;;;;;5006546;28;20210;-66
2022/01/17 07:59:41;;;;;;;10.70;6.00;;;;;;;;;;5021991;28;20199;-66
2022/01/17 08:02:12;;;;;;;14.00;6.72;;;;;;;;;;5026958;28;20784;-67
2022/01/17 08:04:42;;;;;;;13.53;6.43;;;;;;;;;;5027989;28;20202;-66
2022/01/17 08:07:12;;;;;;;11.07;5.43;;;;;;;;;;5028097;28;20203;-68
2022/01/17 08:09:40;;;;;;;15.63;5.67;;;;;;;;;;5020729;28;20237;-68
2022/01/17 08:12:16;;;;;;;9.77;5.20;;;;;;;;;;5021077;28;20203;-70
2022/01/17 08:14:45;;;;;;;8.60;5.40;;;;;;;;;;5002785;28;20221;-70
2022/01/17 08:17:28;;;;;;;8.70;4.67;;;;;;;;;;5021329;28;20214;-68
2022/01/17 08:20:02;;;;;;;8.97;5.40;;;;;;;;;;5026118;28;20202;-67
2022/01/17 08:22:32;;;;;;;9.43;4.80;;;;;;;;;;5022460;28;20231;-65
2022/01/17 08:24:59;;;;;;;7.20;4.63;;;;;;;;;;5009009;28;20223;-66
2022/01/17 08:27:27;;;;;;;11.07;5.20;;;;;;;;;;5028425;28;20217;-66
2022/01/17 08:30:00;;;;;;;9.00;4.73;;;;;;;;;;5025595;28;20227;-66
2022/01/17 08:32:57;;;;;;;7.77;4.47;;;;;;;;;;5026218;28;20209;-66
2022/01/17 08:35:25;;;;;;;6.70;4.23;;;;;;;;;;5024555;28;20222;-67
2022/01/17 08:37:57;;;;;;;6.47;4.50;;;;;;;;;;5006541;28;20218;-66
2022/01/17 08:40:27;;;;;;;7.47;5.17;;;;;;;;;;5016944;28;20215;-67
2022/01/17 08:42:58;;;;;;;6.67;4.10;;;;;;;;;;5021957;28;20711;-66
2022/01/17 08:45:29;;;;;;;6.23;4.20;;;;;;;;;;5004581;28;20317;-67
2022/01/17 08:48:14;;;;;;;5.73;4.43;;;;;;;;;;5028781;28;20191;-67
2022/01/17 08:50:47;;;;;;;7.57;4.50;;;;;;;;;;5020657;28;20687;-66
2022/01/17 08:53:19;;;;;;;8.60;4.30;;;;;;;;;;5011381;28;20720;-66
2022/01/17 08:55:47;;;;;;;5.93;4.13;;;;;;;;;;5026488;28;20207;-66
2022/01/17 08:58:17;;;;;;;6.60;3.93;;;;;;;;;;5020921;28;20264;-67
2022/01/17 09:00:49;;;;;;;5.80;4.17;;;;;;;;;;5021017;28;20222;-66
2022/01/17 09:03:26;;;;;;;5.90;3.70;;;;;;;;;;5013138;28;20733;-67
2022/01/17 09:05:57;;;;;;;5.17;3.60;;;;;;;;;;5028891;28;20249;-72
2022/01/17 09:08:29;;;;;;;7.70;4.07;;;;;;;;;;5012875;28;20206;-70
2022/01/17 09:10:59;;;;;;;6.97;4.00;;;;;;;;;;5028558;28;20203;-69
2022/01/17 09:13:31;;;;;;;4.77;3.80;;;;;;;;;;5013320;28;20194;-69
2022/01/17 09:16:01;;;;;;;5.20;3.50;;;;;;;;;;5025724;28;20580;-70
2022/01/17 09:18:31;;;;;;;3.90;3.43;;;;;;;;;;5027093;28;20222;-69
2022/01/17 09:20:59;;;;;;;6.23;3.37;;;;;;;;;;5026160;28;20203;-69
2022/01/17 09:23:30;;;;;;;4.10;3.40;;;;;;;;;;5021850;28;20258;-69
2022/01/17 09:26:05;;;;;;;3.97;2.97;;;;;;;;;;5028001;28;20233;-69
2022/01/17 09:28:35;;;;;;;4.60;3.40;;;;;;;;;;5005951;28;20215;-69
2022/01/17 09:31:06;;;;;;;5.13;3.40;;;;;;;;;;5024871;28;20610;-69
2022/01/17 09:33:37;;;;;;;4.40;3.47;;;;;;;;;;5022937;28;20187;-69
2022/01/17 09:36:08;;;;;;;3.83;2.77;;;;;;;;;;5027239;28;20207;-69
2022/01/17 09:38:38;;;;;;;4.77;2.83;;;;;;;;;;5024945;28;20218;-69
2022/01/17 09:41:16;;;;;;;5.37;3.07;;;;;;;;;;5028316;28;20339;-69
2022/01/17 09:43:53;;;;;;;4.27;3.10;;;;;;;;;;5031227;28;20222;-68
2022/01/17 09:46:26;;;;;;;5.03;2.70;;;;;;;;;;5045921;28;20235;-68
2022/01/17 09:49:02;;;;;;;5.40;3.00;;;;;;;;;;5028477;28;20229;-69
2022/01/17 09:51:51;;;;;;;3.87;2.67;;;;;;;;;;5024997;28;20207;-67
2022/01/17 09:54:27;;;;;;;3.60;2.67;;;;;;;;;;5012533;28;20571;-67
2022/01/17 09:56:58;;;;;;;3.87;2.57;;;;;;;;;;5037831;28;20210;-68
2022/01/17 09:59:30;;;;;;;2.90;2.63;;;;;;;;;;5006961;28;20202;-69
2022/01/17 10:01:57;;;;;;;4.03;2.50;;;;;;;;;;5006863;28;20207;-67
2022/01/17 10:04:29;;;;;;;2.80;2.40;;;;;;;;;;5025622;28;20218;-66
2022/01/17 10:07:01;;;;;;;4.07;2.80;;;;;;;;;;5030392;28;20214;-68
2022/01/17 10:09:33;;;;;;;4.10;2.67;;;;;;;;;;4993119;28;20665;-69
2022/01/17 10:12:09;;;;;;;3.90;2.37;;;;;;;;;;5045150;28;20190;-66
2022/01/17 10:14:57;;;;;;;5.50;2.50;;;;;;;;;;5029540;28;20252;-67
2022/01/17 10:17:50;;;;;;;3.50;2.57;;;;;;;;;;5031420;28;20214;-66
2022/01/17 10:20:31;;;;;;;3.47;2.30;;;;;;;;;;5011505;28;20653;-66
2022/01/17 10:23:17;;;;;;;2.87;2.30;;;;;;;;;;5031266;28;20226;-64
2022/01/17 10:26:05;;;;;;;2.47;2.27;;;;;;;;;;5028950;28;20229;-63
2022/01/17 10:37:13;;;;;;;3.67;2.40;;;;;;;;;;5018407;28;20529;-66
2022/01/17 10:39:55;;;;;;;4.23;2.17;;;;;;;;;;5018210;28;20763;-68
2022/01/17 10:42:27;;;;;;;3.47;2.40;;;;;;;;;;5028443;28;20202;-67
2022/01/17 10:44:56;;;;;;;4.37;2.10;;;;;;;;;;5027404;28;20195;-67
2022/01/17 10:47:28;;;;;;;4.57;2.43;;;;;;;;;;5007552;28;20219;-68
2022/01/17 10:50:01;;;;;;;3.20;2.10;;;;;;;;;;5024022;28;20265;-67
2022/01/17 10:52:47;;;;;;;2.70;1.90;;;;;;;;;;5024288;28;20296;-68
2022/01/17 10:55:25;;;;;;;3.83;2.07;;;;;;;;;;5026397;28;20340;-68
2022/01/17 10:58:08;;;;;;;2.17;1.80;;;;;;;;;;5026436;28;20213;-69
2022/01/17 11:00:49;;;;;;;2.43;1.83;;;;;;;;;;5027136;28;20202;-67
2022/01/17 11:03:23;;;;;;;2.90;1.80;;;;;;;;;;5007810;28;20199;-68
2022/01/17 11:06:26;;;;;;;2.67;1.97;;;;;;;;;;5015345;28;20312;-69
2022/01/17 11:09:06;;;;;;;4.93;1.90;;;;;;;;;;5028661;28;20183;-64
2022/01/17 11:11:42;;;;;;;3.80;1.77;;;;;;;;;;5020587;28;20210;-65
2022/01/17 11:14:11;;;;;;;2.17;1.80;;;;;;;;;;5027412;28;20195;-66
2022/01/17 11:16:41;;;;;;;3.00;2.00;;;;;;;;;;5025030;28;20215;-65
2022/01/17 11:22:09;;;;;;;2.87;1.70;;;;;;;;;;5025850;28;20242;-65
2022/01/17 11:24:38;;;;;;;5.17;2.10;;;;;;;;;;5028645;28;20218;-65
2022/01/17 11:27:16;;;;;;;3.23;1.87;;;;;;;;;;5024709;28;20284;-64
2022/01/17 11:29:48;;;;;;;2.70;1.90;;;;;;;;;;5006928;28;20241;-64
2022/01/17 11:32:18;;;;;;;4.30;1.70;;;;;;;;;;5020895;28;20210;-66
2022/01/17 11:34:54;;;;;;;4.20;1.87;;;;;;;;;;5046200;28;20191;-65
2022/01/17 11:37:25;;;;;;;3.27;2.10;;;;;;;;;;5010721;28;20207;-66
2022/01/17 11:39:57;;;;;;;3.43;1.97;;;;;;;;;;5025072;28;20680;-66
2022/01/17 11:42:32;;;;;;;6.37;1.80;;;;;;;;;;5024345;28;20211;-65
2022/01/17 11:45:07;;;;;;;3.20;1.83;;;;;;;;;;5035314;28;20202;-65
2022/01/17 11:47:51;;;;;;;3.47;2.07;;;;;;;;;;5014266;28;20226;-66
2022/01/17 11:50:28;;;;;;;3.63;2.23;;;;;;;;;;5026649;28;20275;-66
2022/01/17 11:53:22;;;;;;;3.37;2.20;;;;;;;;;;5020889;28;20655;-68
2022/01/17 11:55:54;;;;;;;2.30;1.77;;;;;;;;;;5027458;28;20229;-67
2022/01/17 11:58:26;;;;;;;3.53;1.83;;;;;;;;;;5026170;28;20207;-68
2022/01/17 12:01:03;;;;;;;3.80;1.90;;;;;;;;;;5027616;28;20222;-67
2022/01/17 12:03:53;;;;;;;3.10;1.43;;;;;;;;;;5020403;28;20226;-67
2022/01/17 12:06:25;;;;;;;4.07;1.93;;;;;;;;;;5024996;28;20699;-66
2022/01/17 12:09:21;;;;;;;2.17;1.53;;;;;;;;;;5005626;28;20207;-69
2022/01/17 12:11:53;;;;;;;4.53;2.10;;;;;;;;;;5025079;28;20189;-66
2022/01/17 12:14:30;;;;;;;2.50;1.60;;;;;;;;;;5024107;28;20268;-66
2022/01/17 12:17:19;;;;;;;3.67;1.80;;;;;;;;;;5025090;28;20230;-67
2022/01/17 12:20:06;;;;;;;3.50;2.07;;;;;;;;;;5022254;28;20238;-70
2022/01/17 12:22:52;;;;;;;2.57;1.70;;;;;;;;;;5034054;28;20692;-67
2022/01/17 12:25:28;;;;;;;3.03;1.53;;;;;;;;;;5040191;28;20199;-66
2022/01/17 12:28:12;;;;;;;7.50;1.80;;;;;;;;;;5024101;28;20310;-65
2022/01/17 12:30:59;;;;;;;6.27;1.97;;;;;;;;;;5031168;28;20222;-67
2022/01/17 12:33:37;;;;;;;4.37;1.73;;;;;;;;;;5023746;28;20198;-67
2022/01/17 12:36:31;;;;;;;3.00;1.63;;;;;;;;;;5025613;28;20206;-68
2022/01/17 12:39:14;;;;;;;9.37;2.00;;;;;;;;;;5023577;28;20199;-66
2022/01/17 12:42:05;;;;;;;4.57;1.70;;;;;;;;;;5024658;28;20191;-67
2022/01/17 12:44:40;;;;;;;4.43;1.83;;;;;;;;;;5012153;28;20198;-66
2022/01/17 12:47:10;;;;;;;4.00;2.00;;;;;;;;;;5029376;28;20223;-68
2022/01/17 12:50:04;;;;;;;3.20;1.93;;;;;;;;;;5023293;28;20215;-69
2022/01/17 12:52:37;;;;;;;5.13;2.00;;;;;;;;;;5028619;28;20202;-69
2022/01/17 12:55:10;;;;;;;5.10;1.80;;;;;;;;;;5011310;28;20199;-66
2022/01/17 12:57:46;;;;;;;3.50;1.70;;;;;;;;;;5031025;28;20218;-66
2022/01/17 13:00:17;;;;;;;4.20;1.80;;;;;;;;;;5010052;28;20199;-68
2022/01/17 13:02:48;;;;;;;6.53;2.00;;;;;;;;;;5020896;28;20617;-69
2022/01/17 13:05:22;;;;;;;3.50;1.73;;;;;;;;;;5003525;28;20285;-64
2022/01/17 13:07:52;;;;;;;3.90;1.90;;;;;;;;;;5007237;28;20577;-65
2022/01/17 13:10:20;;;;;;;3.57;1.90;;;;;;;;;;5009504;28;20206;-67
2022/01/17 13:12:52;;;;;;;4.17;1.90;;;;;;;;;;5004859;28;20223;-68
2022/01/17 13:15:24;;;;;;;2.60;1.70;;;;;;;;;;4998702;28;20210;-66
2022/01/17 13:18:06;;;;;;;3.27;1.57;;;;;;;;;;5009689;28;20214;-69
2022/01/17 13:20:41;;;;;;;4.63;1.93;;;;;;;;;;5024488;28;20203;-66
2022/01/17 13:23:25;;;;;;;4.53;1.90;;;;;;;;;;5025157;28;20262;-67
2022/01/17 13:25:54;;;;;;;4.07;1.80;;;;;;;;;;5010132;28;20205;-66
2022/01/17 13:28:30;;;;;;;5.57;1.93;;;;;;;;;;5006464;28;20215;-67
2022/01/17 13:31:02;;;;;;;4.37;1.63;;;;;;;;;;5024616;28;20226;-66
2022/01/17 13:33:34;;;;;;;4.10;2.03;;;;;;;;;;5019491;28;20201;-66
2022/01/17 13:36:07;;;;;;;4.00;1.83;;;;;;;;;;5028208;28;20197;-64
2022/01/17 13:38:36;;;;;;;4.33;1.70;;;;;;;;;;5030565;28;20210;-64
2022/01/17 13:41:04;;;;;;;3.60;1.90;;;;;;;;;;5026984;28;20215;-67
2022/01/17 13:43:35;;;;;;;3.47;1.60;;;;;;;;;;5022541;28;20656;-67
2022/01/17 13:46:43;;;;;;;6.20;2.00;;;;;;;;;;5016231;28;20300;-66
2022/01/17 13:49:18;;;;;;;2.93;1.60;;;;;;;;;;5013430;28;20261;-66
2022/01/17 13:51:46;;;;;;;2.53;1.73;;;;;;;;;;5021521;28;20555;-68
2022/01/17 13:54:28;;;;;;;3.70;1.90;;;;;;;;;;5028397;28;20203;-68
2022/01/17 13:56:56;;;;;;;5.37;1.80;;;;;;;;;;5027456;28;20624;-65
2022/01/17 13:59:29;;;;;;;3.60;1.47;;;;;;;;;;5025607;28;20673;-65
2022/01/17 14:02:02;;;;;;;4.43;1.60;;;;;;;;;;5031953;28;20210;-65
2022/01/17 14:04:32;;;;;;;3.63;1.83;;;;;;;;;;5026099;28;20221;-65
2022/01/17 14:07:19;;;;;;;4.25;1.98;;;;;;;;;;5031086;28;20524;-66
2022/01/17 14:09:49;;;;;;;6.50;2.10;;;;;;;;;;5027471;28;20229;-63
2022/01/17 14:12:18;;;;;;;4.30;2.07;;;;;;;;;;5028814;28;20824;-63
2022/01/17 14:14:54;;;;;;;6.00;2.50;;;;;;;;;;5022152;28;20234;-64
2022/01/17 14:17:27;;;;;;;6.23;1.80;;;;;;;;;;5022899;28;20775;-67
2022/01/17 14:20:10;;;;;;;4.87;1.73;;;;;;;;;;5030581;28;20268;-65
2022/01/17 14:22:54;;;;;;;3.93;1.80;;;;;;;;;;5030580;28;20241;-63
2022/01/17 14:25:26;;;;;;;4.37;1.87;;;;;;;;;;5025860;28;20203;-65
2022/01/17 14:28:15;;;;;;;5.17;1.90;;;;;;;;;;5025022;28;20281;-63
2022/01/17 14:30:48;;;;;;;4.80;2.00;;;;;;;;;;5024712;28;20226;-64
2022/01/17 14:33:21;;;;;;;5.33;2.13;;;;;;;;;;5025256;28;20739;-62
2022/01/17 14:36:11;;;;;;;3.67;1.40;;;;;;;;;;5010712;28;20203;-63
2022/01/17 14:38:52;;;;;;;5.77;2.00;;;;;;;;;;5027227;28;20640;-63
2022/01/17 14:41:34;;;;;;;8.17;2.30;;;;;;;;;;5039310;28;20202;-62
2022/01/17 14:44:14;;;;;;;4.80;2.00;;;;;;;;;;5028929;28;20708;-62
2022/01/17 14:46:59;;;;;;;5.10;2.13;;;;;;;;;;5026238;28;20679;-64
2022/01/17 14:49:30;;;;;;;4.23;1.87;;;;;;;;;;5024452;28;20218;-64
2022/01/17 14:52:04;;;;;;;3.77;1.93;;;;;;;;;;5025615;28;20229;-66
2022/01/17 14:54:46;;;;;;;3.50;1.50;;;;;;;;;;5025024;28;20644;-63
2022/01/17 15:00:16;;;;;;;5.33;2.23;;;;;;;;;;5018174;28;20226;-62
2022/01/17 15:03:05;;;;;;;4.77;1.80;;;;;;;;;;5026672;28;20203;-63
2022/01/17 15:05:40;;;;;;;3.80;1.70;;;;;;;;;;5027329;28;20644;-62
2022/01/17 15:08:10;;;;;;;3.73;1.90;;;;;;;;;;5026914;28;20751;-63
2022/01/17 15:10:43;;;;;;;3.37;1.80;;;;;;;;;;5028231;28;20257;-63
2022/01/17 15:13:29;;;;;;;4.77;1.93;;;;;;;;;;5025309;28;20582;-63
2022/01/17 15:16:00;;;;;;;4.70;1.83;;;;;;;;;;5024168;28;20219;-62
2022/01/17 15:18:29;;;;;;;6.60;2.03;;;;;;;;;;5028593;28;20219;-63
2022/01/17 15:20:58;;;;;;;4.47;1.80;;;;;;;;;;5027385;28;20219;-63
2022/01/17 15:23:29;;;;;;;4.90;1.77;;;;;;;;;;5023260;28;20246;-63
2022/01/17 15:25:59;;;;;;;3.80;1.50;;;;;;;;;;5028723;28;20203;-63
2022/01/17 15:28:29;;;;;;;4.47;2.10;;;;;;;;;;5028520;28;20259;-64
2022/01/17 15:31:01;;;;;;;4.37;1.97;;;;;;;;;;5011654;28;20651;-63
2022/01/17 15:33:36;;;;;;;4.10;1.83;;;;;;;;;;5004189;28;20206;-63
2022/01/17 15:36:07;;;;;;;4.60;2.30;;;;;;;;;;5011496;28;20221;-64
2022/01/17 15:38:43;;;;;;;9.80;1.90;;;;;;;;;;5027438;28;20203;-65
2022/01/17 15:41:15;;;;;;;4.83;1.90;;;;;;;;;;5005619;28;20210;-63
2022/01/17 15:43:55;;;;;;;4.67;1.90;;;;;;;;;;5024299;28;20211;-62
2022/01/17 15:46:29;;;;;;;4.03;1.80;;;;;;;;;;5026354;28;20203;-64